Terminal Aerodrome Forecast
Issued by NWS Goodland, KS

Home | Current Version | Previous Version | Text Only | Print | Product List | Glossary On
Versions: 1 2 3 4 5 6 7 8 9 10 11 12 13 14 15 16 17 18 19 20 21
875
FTUS43 KGLD 261757
TAFGLD
TAF
KGLD 261757Z 2618/2718 17014KT P6SM SCT250
     FM270300 17008KT P6SM SCT120 BKN200
     FM271200 19006KT P6SM SCT250=

USA.gov is the U.S. government's official web portal to all federal, state and local government web resources and services.